Leamington, Canada
Current Conditions -  °F | °C
As of 7:00 PM on Thursday 18 Dec 2014 (Local Time) from CYQG Reporting Station
Overcast Overcast  
Wind Chill: 26°   Ceiling: 3400
Heat Index: 32°   Visibility: 15mi
Dew Point: 27°   Wind: 6mph
Humidity: 80%   Direction: 330°NNW
Pressure: 30.17"   Gusts: NA
Location:  42.05°N, 82.6°W
Report Text: CYQG 190000Z 33005KT 15SM FEW019 OVC034 00/M03 A3017 RMK CU1SC7 SLP223
Loading
Personal Weather Stations






























Interactive Weather Map New forecast layout! Learn more

10-Day Weather Forecast

Advertisements
Track Severe Weather on mobile